Oslo, Minnesota
Current Conditions -  °F | °C
As of 9:53 AM on Monday 24 Nov 2014 (Local Time) from KGFK Reporting Station
Broken Clouds Broken Clouds  
Wind Chill: -17°   Ceiling: 3200
Heat Index:   Visibility: 10mi
Dew Point:   Wind: 28mph
Humidity: 80%   Direction: 340°NNW
Pressure: 29.78"   Gusts: 36mph
Location:  48.2°N, 97.13°W
Report Text: KGFK 241553Z 34024G31KT 10SM SCT017 BKN032 BKN200 M14/M17 A2978 RMK AO2 PK WND 34031/1550 SLP103 T11441172
Loading
Personal Weather Stations






























Interactive Weather Map New forecast layout! Learn more

10-Day Weather Forecast

Advertisements
Track Severe Weather on mobile